aviador You're here:

OIKQ Decoded Metar

GHESHM I. in IRAN
Report Time2017-10-22 17:00:00
UTC Time2017-10-22 17:19:38
Flight Rules mvfr MVFR
Wind230° at 10 kt
W.Decomp.*RWY 23: 10.0 kt HW 0 kt LCW
W.Rank230° ranks 3
Current wind is below 230° avg. (13.9)
Visibility5000 m
Phenomena:Mist
Clouds:N/A
Expected CloudBase > 1,200 ft AGL from Temp-Dew spread
CeilingNone
Temp29°C (ISA +14)
Dew Point26°C (84% RH)
Heat Index35.6°C
QNH1007 hPa
Density Alt2,297 ft
Elevation39 ft
Report Wrong Elevation
Raw Report
METAR OIKQ 221700Z 23010KT 5000 BR NSC 29/26 Q1007=

Extra information for OIKQ:More info

Metar Taf Metar & Taf Last 4 Metars F.Rules Stats Wind Profile Meteogram Temp Stats Airport Information Weather charts Add Link Nearby VenuesMetar ALERT Operation Metar Decoded Social comments